createdAt,value
2022-12-03T00:00:16.979Z,0.60
2022-12-03T00:02:47.079Z,0.50
2022-12-03T00:05:15.982Z,0.60
2022-12-03T00:07:44.524Z,0.50
2022-12-03T00:10:13.811Z,0.60
2022-12-03T00:12:42.407Z,0.50
2022-12-03T00:15:12.694Z,0.60
2022-12-03T00:17:41.453Z,0.60
2022-12-03T00:20:19.848Z,0.60
2022-12-03T00:25:17.788Z,0.50
2022-12-03T00:30:16.596Z,0.60
2022-12-03T00:35:15.765Z,0.60
2022-12-03T00:37:44.310Z,0.60
2022-12-03T00:40:14.070Z,0.60
2022-12-03T00:42:42.694Z,0.50
2022-12-03T00:45:12.442Z,0.50
2022-12-03T00:47:40.963Z,0.50
2022-12-03T00:50:10.879Z,0.50
2022-12-03T00:52:40.824Z,0.40
2022-12-03T00:55:10.629Z,0.50
2022-12-03T00:57:39.155Z,0.50
2022-12-03T01:00:09.867Z,0.50
2022-12-03T01:05:08.183Z,0.50
2022-12-03T01:07:37.415Z,0.50
2022-12-03T01:10:09.060Z,0.40
2022-12-03T01:12:38.286Z,0.40
2022-12-03T01:15:08.945Z,0.40
2022-12-03T01:17:37.481Z,0.40
2022-12-03T01:20:08.861Z,0.30
2022-12-03T01:22:37.645Z,0.30
2022-12-03T01:25:09.098Z,0.40
2022-12-03T01:30:08.524Z,0.30
2022-12-03T01:37:34.635Z,0.20
2022-12-03T01:42:36.559Z,0.10
2022-12-03T01:45:06.799Z,0.10
2022-12-03T01:47:38.014Z,0.10
2022-12-03T01:50:09.614Z,0.20
2022-12-03T01:52:40.966Z,0.20
2022-12-03T01:55:16.847Z,1.90
2022-12-03T01:57:50.148Z,0.20
2022-12-03T02:00:22.353Z,0.30
2022-12-03T02:02:55.755Z,0.40
2022-12-03T02:05:27.685Z,0.40
2022-12-03T02:07:57.245Z,0.40
2022-12-03T02:10:31.382Z,0.40
2022-12-03T02:13:05.402Z,0.30
2022-12-03T02:15:34.513Z,0.20
2022-12-03T02:18:03.523Z,0.20
2022-12-03T02:20:35.005Z,0.20
2022-12-03T02:23:11.422Z,0.20
2022-12-03T02:25:42.052Z,0.30
2022-12-03T02:28:11.432Z,0.20
2022-12-03T02:30:40.680Z,0.10
2022-12-03T02:33:09.314Z,0.10
2022-12-03T02:35:39.756Z,0.20
2022-12-03T02:38:14.278Z,0.20
2022-12-03T02:40:45.287Z,0.30
2022-12-03T02:43:16.596Z,0.30
2022-12-03T02:45:48.140Z,0.30
2022-12-03T02:48:20.091Z,0.30
2022-12-03T02:50:53.042Z,0.30
2022-12-03T02:53:26.470Z,0.30
2022-12-03T02:55:58.298Z,0.20
2022-12-03T02:58:28.989Z,0.30
2022-12-03T03:00:58.199Z,0.20
2022-12-03T03:03:31.012Z,0.20
2022-12-03T03:06:00.876Z,0.10
2022-12-03T03:11:01.107Z,0.20
2022-12-03T03:13:32.852Z,0.30
2022-12-03T03:16:03.403Z,0.30
2022-12-03T03:23:30.298Z,0.20
2022-12-03T03:26:06.793Z,0.20
2022-12-03T03:28:39.814Z,0.10
2022-12-03T03:31:13.067Z,0.00
2022-12-03T03:33:45.366Z,-0.10
2022-12-03T03:38:43.607Z,-0.10
2022-12-03T03:41:15.295Z,0.00
2022-12-03T03:43:45.766Z,0.00
2022-12-03T03:48:44.954Z,0.00
2022-12-03T03:51:14.676Z,-0.10
2022-12-03T03:53:48.296Z,-0.10
2022-12-03T03:56:19.501Z,-0.10
2022-12-03T04:01:18.784Z,0.00
2022-12-03T04:03:47.553Z,-0.10
2022-12-03T04:08:45.467Z,-0.20
2022-12-03T04:11:31.769Z,-0.20
2022-12-03T04:14:01.717Z,0.00
2022-12-03T04:16:30.614Z,0.00
2022-12-03T04:18:59.178Z,0.10
2022-12-03T04:21:44.909Z,0.10
2022-12-03T04:24:13.755Z,0.10
2022-12-03T04:26:59.590Z,0.10
2022-12-03T04:29:29.573Z,0.20
2022-12-03T04:32:15.457Z,0.20
2022-12-03T04:35:01.814Z,0.20
2022-12-03T04:37:30.480Z,0.20
2022-12-03T04:39:59.022Z,0.10
2022-12-03T04:42:27.652Z,0.20
2022-12-03T04:44:58.672Z,0.20
2022-12-03T04:47:27.224Z,0.20
2022-12-03T04:49:55.957Z,0.20
2022-12-03T04:52:24.484Z,0.20
2022-12-03T04:54:53.311Z,0.10
2022-12-03T04:57:22.179Z,0.10
2022-12-03T04:59:50.682Z,0.00
2022-12-03T05:02:20.909Z,0.00
2022-12-03T05:04:49.701Z,0.10
2022-12-03T05:20:01.567Z,0.10
2022-12-03T05:22:30.127Z,0.10
2022-12-03T05:27:27.740Z,0.20
2022-12-03T05:32:25.490Z,0.00
2022-12-03T05:34:56.053Z,0.00
2022-12-03T05:37:24.901Z,0.00
2022-12-03T05:39:53.716Z,0.00
2022-12-03T05:42:39.521Z,0.10
2022-12-03T05:45:09.490Z,0.00
2022-12-03T05:50:10.074Z,-0.10
2022-12-03T05:55:08.991Z,0.00
2022-12-03T05:57:37.639Z,0.10
2022-12-03T06:00:09.273Z,0.10
2022-12-03T06:02:38.119Z,0.10
2022-12-03T06:05:09.876Z,0.10
2022-12-03T06:07:38.899Z,0.10
2022-12-03T06:10:10.493Z,0.10
2022-12-03T06:12:39.069Z,0.10
2022-12-03T06:15:10.010Z,0.20
2022-12-03T06:17:38.629Z,0.20
2022-12-03T06:20:11.974Z,0.20
2022-12-03T06:22:40.532Z,0.20
2022-12-03T06:25:10.123Z,0.20
2022-12-03T06:27:38.889Z,0.20
2022-12-03T06:30:09.914Z,0.20
2022-12-03T06:32:38.410Z,0.20
2022-12-03T06:35:09.514Z,0.20
2022-12-03T06:40:09.113Z,0.30
2022-12-03T06:42:37.655Z,0.30
2022-12-03T06:45:07.816Z,0.30
2022-12-03T06:47:36.633Z,0.30
2022-12-03T06:52:37.268Z,0.30
2022-12-03T06:55:07.045Z,0.30
2022-12-03T06:57:35.571Z,0.30
2022-12-03T07:00:05.167Z,0.30
2022-12-03T07:02:33.737Z,0.30
2022-12-03T07:05:02.550Z,0.30
2022-12-03T07:07:32.541Z,0.30
2022-12-03T07:10:01.767Z,0.30
2022-12-03T07:12:31.082Z,0.30
2022-12-03T07:14:59.884Z,0.20
2022-12-03T07:17:28.428Z,0.30
2022-12-03T07:19:57.170Z,0.30
2022-12-03T07:22:25.699Z,0.30
2022-12-03T07:24:55.865Z,0.30
2022-12-03T07:27:25.082Z,0.30
2022-12-03T07:32:22.560Z,0.20
2022-12-03T07:34:51.314Z,0.30
2022-12-03T07:37:23.068Z,0.30
2022-12-03T07:39:52.593Z,0.30
2022-12-03T07:42:22.538Z,0.30
2022-12-03T07:44:51.639Z,0.30
2022-12-03T07:47:20.697Z,0.30
2022-12-03T07:49:49.255Z,0.30
2022-12-03T07:54:46.857Z,0.30
2022-12-03T07:59:45.634Z,0.40
2022-12-03T08:02:20.785Z,0.40
2022-12-03T08:07:18.911Z,0.50
2022-12-03T08:12:19.628Z,0.50
2022-12-03T08:14:49.913Z,0.50
2022-12-03T08:19:50.103Z,0.50
2022-12-03T08:22:18.706Z,0.50
2022-12-03T08:27:20.179Z,0.50
2022-12-03T08:29:50.123Z,0.60
2022-12-03T08:34:47.816Z,0.60
2022-12-03T08:37:20.066Z,0.60
2022-12-03T08:39:50.831Z,0.50
2022-12-03T08:42:40.959Z,0.50
2022-12-03T08:45:43.665Z,0.40
2022-12-03T08:48:29.941Z,0.20
2022-12-03T08:51:02.035Z,0.20
2022-12-03T08:53:35.543Z,0.30
2022-12-03T08:56:07.823Z,0.30
2022-12-03T08:58:41.119Z,0.40
2022-12-03T09:01:32.309Z,0.50
2022-12-03T09:04:17.310Z,0.50
2022-12-03T09:09:14.971Z,0.70
2022-12-03T09:11:44.380Z,0.80
2022-12-03T09:14:18.342Z,0.80
2022-12-03T09:16:49.398Z,0.80
2022-12-03T09:19:18.007Z,0.80
2022-12-03T09:21:46.575Z,0.70
2022-12-03T09:24:15.336Z,0.80
2022-12-03T09:26:43.846Z,0.80
2022-12-03T09:29:13.126Z,0.80
2022-12-03T09:31:41.958Z,0.80
2022-12-03T09:34:12.475Z,0.90
2022-12-03T09:41:39.277Z,0.80
2022-12-03T09:44:12.376Z,0.80
2022-12-03T09:49:19.069Z,0.90
2022-12-03T09:51:48.231Z,0.90
2022-12-03T09:54:25.259Z,1.00
2022-12-03T09:56:54.911Z,0.90
2022-12-03T09:59:26.921Z,0.90
2022-12-03T10:01:56.165Z,1.00
2022-12-03T10:04:26.459Z,1.10
2022-12-03T10:09:28.718Z,1.10
2022-12-03T10:11:58.923Z,1.10
2022-12-03T10:16:56.904Z,1.20
2022-12-03T10:19:31.836Z,1.10
2022-12-03T10:22:00.699Z,1.10
2022-12-03T10:24:30.981Z,1.10
2022-12-03T10:27:02.148Z,1.10
2022-12-03T10:29:34.292Z,1.10
2022-12-03T10:32:06.901Z,1.00
2022-12-03T10:34:39.249Z,1.00
2022-12-03T10:37:18.640Z,1.00
2022-12-03T10:40:00.830Z,1.00
2022-12-03T10:42:32.517Z,0.90
2022-12-03T10:45:17.324Z,1.10
2022-12-03T10:48:05.117Z,1.00
2022-12-03T10:50:35.936Z,1.00
2022-12-03T10:53:05.275Z,1.10
2022-12-03T10:55:40.941Z,1.10
2022-12-03T10:58:19.614Z,1.10
2022-12-03T11:00:48.590Z,1.20
2022-12-03T11:03:24.091Z,1.10
2022-12-03T11:05:55.802Z,1.20
2022-12-03T11:08:28.490Z,1.40
2022-12-03T11:11:02.416Z,1.30
2022-12-03T11:13:53.810Z,1.10
2022-12-03T11:17:09.054Z,1.20
2022-12-03T11:19:52.352Z,1.20
2022-12-03T11:22:44.074Z,1.30
2022-12-03T11:25:50.607Z,1.30
2022-12-03T11:28:37.851Z,1.20
2022-12-03T11:31:15.255Z,1.20
2022-12-03T11:33:44.652Z,1.20
2022-12-03T11:36:31.692Z,1.10
2022-12-03T11:39:08.961Z,1.20
2022-12-03T11:44:33.851Z,1.30
2022-12-03T11:47:15.168Z,1.40
2022-12-03T11:49:50.264Z,1.40
2022-12-03T11:52:28.808Z,1.30
2022-12-03T11:55:05.446Z,1.30
2022-12-03T11:57:37.834Z,1.30
2022-12-03T12:00:21.918Z,1.40
2022-12-03T12:02:52.318Z,1.40
2022-12-03T12:05:34.086Z,1.30
2022-12-03T12:08:04.068Z,1.30
2022-12-03T12:10:47.036Z,1.30
2022-12-03T12:13:55.982Z,1.40
2022-12-03T12:16:55.451Z,1.30
2022-12-03T12:19:48.468Z,1.30
2022-12-03T12:22:33.063Z,1.30
2022-12-03T12:25:02.907Z,1.30
2022-12-03T12:27:38.129Z,1.30
2022-12-03T12:30:11.139Z,1.10
2022-12-03T12:32:47.173Z,1.20
2022-12-03T12:35:20.095Z,1.20
2022-12-03T12:37:59.983Z,1.20
2022-12-03T12:40:32.424Z,1.30
2022-12-03T12:43:12.395Z,1.30
2022-12-03T12:45:44.583Z,1.30
2022-12-03T12:48:26.526Z,1.30
2022-12-03T12:51:10.562Z,1.30
2022-12-03T12:53:42.810Z,1.10
2022-12-03T12:56:21.593Z,1.10
2022-12-03T12:58:52.071Z,1.20
2022-12-03T13:01:26.486Z,1.30
2022-12-03T13:03:55.979Z,1.30
2022-12-03T13:06:28.817Z,1.40
2022-12-03T13:08:59.073Z,1.40
2022-12-03T13:11:41.345Z,1.60
2022-12-03T13:14:18.459Z,1.50
2022-12-03T13:19:26.102Z,1.30
2022-12-03T13:21:56.348Z,1.30
2022-12-03T13:24:33.698Z,1.30
2022-12-03T13:27:09.892Z,1.30
2022-12-03T13:29:39.890Z,1.20
2022-12-03T13:32:15.723Z,1.30
2022-12-03T13:37:18.012Z,1.30
2022-12-03T13:39:50.190Z,1.30
2022-12-03T13:42:40.638Z,1.30
2022-12-03T13:45:37.153Z,1.30
2022-12-03T13:48:21.251Z,1.30
2022-12-03T13:50:50.584Z,1.30
2022-12-03T13:53:23.953Z,1.30
2022-12-03T13:55:57.665Z,1.30
2022-12-03T14:00:56.678Z,1.20
2022-12-03T14:05:54.226Z,1.10
2022-12-03T14:15:57.749Z,1.10
2022-12-03T14:18:26.392Z,1.10
2022-12-03T14:20:54.937Z,1.10
2022-12-03T14:23:23.460Z,1.10
2022-12-03T14:25:52.178Z,1.10
2022-12-03T14:28:20.707Z,1.00
2022-12-03T14:33:19.654Z,1.10
2022-12-03T14:35:48.220Z,1.10
2022-12-03T14:38:16.781Z,1.20
2022-12-03T14:40:45.312Z,1.10
2022-12-03T14:43:14.081Z,1.20
2022-12-03T14:45:42.664Z,1.10
2022-12-03T14:48:11.431Z,1.00
2022-12-03T14:50:41.355Z,1.10
2022-12-03T14:53:09.908Z,1.10
2022-12-03T15:00:36.986Z,1.10
2022-12-03T15:03:05.668Z,1.00
2022-12-03T15:05:34.502Z,1.00
2022-12-03T15:08:04.587Z,0.90
2022-12-03T15:10:33.163Z,1.00
2022-12-03T15:15:30.521Z,1.00
2022-12-03T15:20:28.036Z,0.80
2022-12-03T15:22:57.110Z,0.80
2022-12-03T15:25:27.037Z,0.80
2022-12-03T15:27:55.835Z,0.80
2022-12-03T15:35:22.218Z,0.90
2022-12-03T15:40:19.631Z,0.80
2022-12-03T15:42:49.805Z,0.90
2022-12-03T15:45:18.849Z,0.90
2022-12-03T15:47:47.736Z,0.90
2022-12-03T15:50:16.488Z,0.90
2022-12-03T15:52:45.086Z,0.90
2022-12-03T15:55:14.087Z,0.90
2022-12-03T15:57:42.643Z,0.90
2022-12-03T16:00:15.824Z,0.80
2022-12-03T16:02:50.868Z,0.80
2022-12-03T16:05:21.696Z,0.80
2022-12-03T16:07:50.274Z,0.80
2022-12-03T16:12:50.394Z,0.80
2022-12-03T16:15:26.455Z,0.70
2022-12-03T16:17:55.723Z,0.70
2022-12-03T16:20:24.336Z,0.60
2022-12-03T16:25:21.904Z,0.60
2022-12-03T16:27:50.826Z,0.60
2022-12-03T16:30:21.031Z,0.60
2022-12-03T16:35:18.835Z,0.60
2022-12-03T16:42:45.092Z,0.60
2022-12-03T16:48:02.823Z,0.60
2022-12-03T16:53:00.401Z,0.50
2022-12-03T16:55:29.096Z,0.60
2022-12-03T16:57:57.696Z,0.60
2022-12-03T17:00:26.581Z,0.60
2022-12-03T17:02:55.276Z,0.60
2022-12-03T17:05:25.319Z,0.60
2022-12-03T17:10:22.785Z,0.60
2022-12-03T17:15:40.871Z,0.50
2022-12-03T17:20:40.421Z,0.50
2022-12-03T17:23:09.438Z,0.50
2022-12-03T17:25:37.964Z,0.50
2022-12-03T17:28:06.727Z,0.50
2022-12-03T17:35:33.425Z,0.50
2022-12-03T17:38:03.718Z,0.50
2022-12-03T17:43:04.095Z,0.40
2022-12-03T17:45:32.638Z,0.30
2022-12-03T17:48:01.239Z,0.30
2022-12-03T17:50:29.842Z,0.30
2022-12-03T17:55:37.271Z,0.30
2022-12-03T18:00:40.306Z,0.30
2022-12-03T18:03:10.089Z,0.20
2022-12-03T18:05:38.898Z,0.20
2022-12-03T18:08:08.088Z,0.30
2022-12-03T18:10:38.377Z,0.30
2022-12-03T18:15:35.750Z,0.30
2022-12-03T18:20:33.387Z,0.30
2022-12-03T18:23:01.971Z,0.30
2022-12-03T18:25:31.162Z,0.30
2022-12-03T18:28:01.079Z,0.30
2022-12-03T18:37:56.554Z,0.30
2022-12-03T18:40:27.256Z,0.10
2022-12-03T18:42:57.119Z,0.00
2022-12-03T18:45:27.091Z,0.00
2022-12-03T18:47:56.124Z,0.10
2022-12-03T18:52:53.785Z,0.20
2022-12-03T18:55:23.662Z,0.20
2022-12-03T18:57:52.217Z,0.20
2022-12-03T19:00:21.457Z,0.30
2022-12-03T19:03:02.986Z,0.10
2022-12-03T19:08:02.053Z,0.30
2022-12-03T19:15:28.737Z,0.20
2022-12-03T19:17:58.731Z,0.20
2022-12-03T19:20:27.283Z,0.20
2022-12-03T19:22:55.853Z,0.20
2022-12-03T19:25:24.587Z,0.20
2022-12-03T19:27:55.127Z,0.20
2022-12-03T19:35:23.179Z,0.00
2022-12-03T19:37:52.368Z,-0.10
2022-12-03T19:40:21.286Z,-0.10
2022-12-03T19:45:18.810Z,0.00
2022-12-03T19:50:22.640Z,0.10
2022-12-03T19:52:54.219Z,0.10
2022-12-03T19:57:52.927Z,0.10
2022-12-03T20:00:22.205Z,0.10
2022-12-03T20:02:51.212Z,0.10
2022-12-03T20:07:50.360Z,0.00
2022-12-03T20:10:22.642Z,-0.10
2022-12-03T20:15:21.904Z,-0.10
2022-12-03T20:17:51.717Z,0.00
2022-12-03T20:20:21.657Z,0.00
2022-12-03T20:22:51.235Z,0.00
2022-12-03T20:25:21.845Z,0.00
2022-12-03T20:27:50.768Z,0.00
2022-12-03T20:32:51.200Z,-0.30
2022-12-03T20:35:19.893Z,-0.40
2022-12-03T20:37:48.454Z,-0.40
2022-12-03T20:40:17.086Z,-0.30
2022-12-03T20:42:49.739Z,-0.20
2022-12-03T20:45:18.513Z,-0.30
2022-12-03T20:50:15.870Z,-0.40
2022-12-03T20:55:33.732Z,-0.40
2022-12-03T20:58:04.093Z,-0.40
2022-12-03T21:00:32.906Z,-0.30
2022-12-03T21:03:01.508Z,-0.20
2022-12-03T21:10:36.914Z,-0.20
2022-12-03T21:13:06.827Z,-0.20
2022-12-03T21:18:04.531Z,-0.20
2022-12-03T21:20:33.099Z,-0.10
2022-12-03T21:23:01.667Z,-0.10
2022-12-03T21:25:30.782Z,-0.10
2022-12-03T21:27:59.338Z,-0.30
2022-12-03T21:30:30.120Z,-0.40
2022-12-03T21:32:58.813Z,-0.40
2022-12-03T21:35:27.623Z,-0.40
2022-12-03T21:37:56.572Z,-0.30
2022-12-03T21:40:25.190Z,-0.30
2022-12-03T21:42:53.945Z,-0.30
2022-12-03T21:45:25.110Z,-0.30
2022-12-03T21:47:55.166Z,-0.30
2022-12-03T21:52:52.807Z,-0.20
2022-12-03T21:55:21.463Z,-0.20
2022-12-03T22:00:19.839Z,-0.20
2022-12-03T22:05:19.183Z,-0.30
2022-12-03T22:10:16.926Z,-0.20
2022-12-03T22:12:45.516Z,-0.20
2022-12-03T22:15:18.730Z,-0.20
2022-12-03T22:17:48.323Z,-0.20
2022-12-03T22:20:18.372Z,-0.20
2022-12-03T22:22:47.180Z,-0.20
2022-12-03T22:25:15.933Z,-0.20
2022-12-03T22:30:13.843Z,-0.30
2022-12-03T22:35:11.403Z,-0.30
2022-12-03T22:37:41.338Z,-0.30
2022-12-03T22:40:11.028Z,-0.20
2022-12-03T22:45:09.722Z,-0.30
2022-12-03T22:50:12.403Z,-0.30
2022-12-03T22:52:42.363Z,-0.20
2022-12-03T22:55:11.549Z,-0.20
2022-12-03T23:00:11.781Z,-0.20
2022-12-03T23:02:41.180Z,-0.30
2022-12-03T23:07:38.872Z,-0.50
2022-12-03T23:10:10.698Z,-0.50
2022-12-03T23:12:39.579Z,-0.40
2022-12-03T23:15:10.893Z,-0.40
2022-12-03T23:17:39.416Z,-0.40
2022-12-03T23:20:09.863Z,-0.40
2022-12-03T23:22:38.499Z,-0.40
2022-12-03T23:25:10.308Z,-0.30
2022-12-03T23:30:09.652Z,-0.30
2022-12-03T23:32:38.948Z,-0.50
2022-12-03T23:35:09.150Z,-0.50
2022-12-03T23:37:37.713Z,-0.40
2022-12-03T23:40:09.585Z,-0.40
2022-12-03T23:45:09.141Z,-0.30
2022-12-03T23:47:37.663Z,-0.30
2022-12-03T23:50:07.944Z,-0.50
2022-12-03T23:52:37.428Z,-0.50
2022-12-03T23:55:06.924Z,-0.40
2022-12-03T23:57:37.573Z,-0.30
